sensor_id;sensor_type;location;lat;lon;timestamp;temperature;humidity
35373;DHT22;21476;51.652;7.852;2023-02-07T00:01:10;0.00;99.90
35373;DHT22;21476;51.652;7.852;2023-02-07T00:03:37;0.00;99.90
35373;DHT22;21476;51.652;7.852;2023-02-07T00:06:13;0.00;99.90
35373;DHT22;21476;51.652;7.852;2023-02-07T00:08:40;0.00;99.90
35373;DHT22;21476;51.652;7.852;2023-02-07T00:11:11;-0.10;99.90
35373;DHT22;21476;51.652;7.852;2023-02-07T00:13:37;-0.20;99.90
35373;DHT22;21476;51.652;7.852;2023-02-07T00:16:04;-0.10;99.90
35373;DHT22;21476;51.652;7.852;2023-02-07T00:18:31;-0.20;99.90
35373;DHT22;21476;51.652;7.852;2023-02-07T00:21:02;-0.10;99.90
35373;DHT22;21476;51.652;7.852;2023-02-07T00:23:28;-0.10;99.90
35373;DHT22;21476;51.652;7.852;2023-02-07T00:25:54;-0.20;99.90
35373;DHT22;21476;51.652;7.852;2023-02-07T00:28:20;-0.20;99.90
35373;DHT22;21476;51.652;7.852;2023-02-07T00:30:46;-0.30;99.90
35373;DHT22;21476;51.652;7.852;2023-02-07T00:33:11;-0.30;99.90
35373;DHT22;21476;51.652;7.852;2023-02-07T00:35:37;-0.40;99.90
35373;DHT22;21476;51.652;7.852;2023-02-07T00:38:03;-0.40;99.90
35373;DHT22;21476;51.652;7.852;2023-02-07T00:40:28;-0.50;99.90
35373;DHT22;21476;51.652;7.852;2023-02-07T00:42:54;-0.50;99.90
35373;DHT22;21476;51.652;7.852;2023-02-07T00:45:20;-0.50;99.90
35373;DHT22;21476;51.652;7.852;2023-02-07T00:47:45;-0.50;99.90
35373;DHT22;21476;51.652;7.852;2023-02-07T00:50:11;-0.50;99.90
35373;DHT22;21476;51.652;7.852;2023-02-07T00:52:37;-0.60;99.90
35373;DHT22;21476;51.652;7.852;2023-02-07T00:55:02;-0.60;99.90
35373;DHT22;21476;51.652;7.852;2023-02-07T00:57:28;-0.60;99.90
35373;DHT22;21476;51.652;7.852;2023-02-07T00:59:53;-0.50;99.90
35373;DHT22;21476;51.652;7.852;2023-02-07T01:02:19;-0.50;99.90
35373;DHT22;21476;51.652;7.852;2023-02-07T01:04:45;-0.50;99.90
35373;DHT22;21476;51.652;7.852;2023-02-07T01:07:10;-0.60;99.90
35373;DHT22;21476;51.652;7.852;2023-02-07T01:09:36;-0.50;99.90
35373;DHT22;21476;51.652;7.852;2023-02-07T01:12:02;-0.70;99.90
35373;DHT22;21476;51.652;7.852;2023-02-07T01:14:27;-0.80;99.90
35373;DHT22;21476;51.652;7.852;2023-02-07T01:16:53;-0.80;99.90
35373;DHT22;21476;51.652;7.852;2023-02-07T01:19:19;-0.70;99.90
35373;DHT22;21476;51.652;7.852;2023-02-07T01:21:44;-0.80;99.90
35373;DHT22;21476;51.652;7.852;2023-02-07T01:24:10;-0.80;99.90
35373;DHT22;21476;51.652;7.852;2023-02-07T01:26:37;-0.90;99.90
35373;DHT22;21476;51.652;7.852;2023-02-07T01:29:03;-1.00;99.90
35373;DHT22;21476;51.652;7.852;2023-02-07T01:31:29;-0.90;99.90
35373;DHT22;21476;51.652;7.852;2023-02-07T01:33:56;-0.90;99.90
35373;DHT22;21476;51.652;7.852;2023-02-07T01:36:23;-0.90;99.90
35373;DHT22;21476;51.652;7.852;2023-02-07T01:38:51;-0.90;99.90
35373;DHT22;21476;51.652;7.852;2023-02-07T01:41:18;-1.00;99.90
35373;DHT22;21476;51.652;7.852;2023-02-07T01:43:55;-1.00;99.90
35373;DHT22;21476;51.652;7.852;2023-02-07T01:46:21;-1.10;99.90
35373;DHT22;21476;51.652;7.852;2023-02-07T01:48:47;-1.10;99.90
35373;DHT22;21476;51.652;7.852;2023-02-07T01:51:13;-1.10;99.90
35373;DHT22;21476;51.652;7.852;2023-02-07T01:53:39;-1.10;99.90
35373;DHT22;21476;51.652;7.852;2023-02-07T01:56:08;-1.10;99.90
35373;DHT22;21476;51.652;7.852;2023-02-07T01:58:36;-1.10;99.90
35373;DHT22;21476;51.652;7.852;2023-02-07T02:01:16;-1.10;99.90
35373;DHT22;21476;51.652;7.852;2023-02-07T02:03:46;-1.10;99.90
35373;DHT22;21476;51.652;7.852;2023-02-07T02:06:12;-1.20;99.90
35373;DHT22;21476;51.652;7.852;2023-02-07T02:08:39;-1.20;99.90
35373;DHT22;21476;51.652;7.852;2023-02-07T02:23:17;-1.50;99.90
35373;DHT22;21476;51.652;7.852;2023-02-07T02:29:23;-1.50;99.90
35373;DHT22;21476;51.652;7.852;2023-02-07T02:34:30;-1.70;99.90
35373;DHT22;21476;51.652;7.852;2023-02-07T02:37:14;-1.80;99.90
35373;DHT22;21476;51.652;7.852;2023-02-07T02:42:29;-1.80;99.90
35373;DHT22;21476;51.652;7.852;2023-02-07T02:47:30;-1.90;99.90
35373;DHT22;21476;51.652;7.852;2023-02-07T02:49:57;-2.00;99.90
35373;DHT22;21476;51.652;7.852;2023-02-07T02:52:25;-2.00;99.90
35373;DHT22;21476;51.652;7.852;2023-02-07T02:54:51;-2.00;99.90
35373;DHT22;21476;51.652;7.852;2023-02-07T02:57:33;-2.10;99.90
35373;DHT22;21476;51.652;7.852;2023-02-07T03:00:42;-2.10;99.90
35373;DHT22;21476;51.652;7.852;2023-02-07T03:03:36;-2.10;99.90
35373;DHT22;21476;51.652;7.852;2023-02-07T03:11:29;-2.30;99.90
35373;DHT22;21476;51.652;7.852;2023-02-07T03:14:09;-2.20;99.90
35373;DHT22;21476;51.652;7.852;2023-02-07T03:19:39;-2.30;99.90
35373;DHT22;21476;51.652;7.852;2023-02-07T03:22:11;-2.30;99.90
35373;DHT22;21476;51.652;7.852;2023-02-07T03:24:44;-2.30;99.90
35373;DHT22;21476;51.652;7.852;2023-02-07T03:27:13;-2.30;99.90
35373;DHT22;21476;51.652;7.852;2023-02-07T03:29:42;-2.30;99.90
35373;DHT22;21476;51.652;7.852;2023-02-07T03:32:09;-2.50;99.90
35373;DHT22;21476;51.652;7.852;2023-02-07T03:37:30;-2.40;99.90
35373;DHT22;21476;51.652;7.852;2023-02-07T03:39:58;-2.40;99.90
35373;DHT22;21476;51.652;7.852;2023-02-07T03:42:33;-2.40;99.90
35373;DHT22;21476;51.652;7.852;2023-02-07T03:45:00;-2.40;99.90
35373;DHT22;21476;51.652;7.852;2023-02-07T03:47:28;-2.50;99.90
35373;DHT22;21476;51.652;7.852;2023-02-07T03:49:54;-2.50;99.90
35373;DHT22;21476;51.652;7.852;2023-02-07T03:52:19;-2.50;99.90
35373;DHT22;21476;51.652;7.852;2023-02-07T03:54:45;-2.50;99.90
35373;DHT22;21476;51.652;7.852;2023-02-07T03:57:11;-2.50;99.90
35373;DHT22;21476;51.652;7.852;2023-02-07T03:59:36;-2.50;99.90
35373;DHT22;21476;51.652;7.852;2023-02-07T04:02:02;-2.50;99.90
35373;DHT22;21476;51.652;7.852;2023-02-07T04:04:28;-2.60;99.90
35373;DHT22;21476;51.652;7.852;2023-02-07T04:06:54;-2.60;99.90
35373;DHT22;21476;51.652;7.852;2023-02-07T04:09:19;-2.70;99.90
35373;DHT22;21476;51.652;7.852;2023-02-07T04:11:48;-2.70;99.90
35373;DHT22;21476;51.652;7.852;2023-02-07T04:14:14;-2.80;99.90
35373;DHT22;21476;51.652;7.852;2023-02-07T04:16:40;-2.80;99.90
35373;DHT22;21476;51.652;7.852;2023-02-07T04:19:05;-2.80;99.90
35373;DHT22;21476;51.652;7.852;2023-02-07T04:21:31;-2.80;99.90
35373;DHT22;21476;51.652;7.852;2023-02-07T04:23:57;-2.80;99.90
35373;DHT22;21476;51.652;7.852;2023-02-07T04:26:22;-2.80;99.90
35373;DHT22;21476;51.652;7.852;2023-02-07T04:28:48;-2.80;99.90
35373;DHT22;21476;51.652;7.852;2023-02-07T04:31:14;-2.90;99.90
35373;DHT22;21476;51.652;7.852;2023-02-07T04:33:39;-2.90;99.90
35373;DHT22;21476;51.652;7.852;2023-02-07T04:36:05;-3.00;99.90
35373;DHT22;21476;51.652;7.852;2023-02-07T04:38:31;-3.00;99.90
35373;DHT22;21476;51.652;7.852;2023-02-07T04:41:02;-2.90;99.90
35373;DHT22;21476;51.652;7.852;2023-02-07T04:43:29;-2.90;99.90
35373;DHT22;21476;51.652;7.852;2023-02-07T04:45:55;-2.90;99.90
35373;DHT22;21476;51.652;7.852;2023-02-07T04:48:21;-2.90;99.90
35373;DHT22;21476;51.652;7.852;2023-02-07T04:50:47;-3.00;99.90
35373;DHT22;21476;51.652;7.852;2023-02-07T04:53:13;-3.00;99.90
35373;DHT22;21476;51.652;7.852;2023-02-07T04:55:39;-3.00;99.90
35373;DHT22;21476;51.652;7.852;2023-02-07T04:58:05;-3.10;99.90
35373;DHT22;21476;51.652;7.852;2023-02-07T05:00:31;-3.00;99.90
35373;DHT22;21476;51.652;7.852;2023-02-07T05:02:57;-2.70;99.90
35373;DHT22;21476;51.652;7.852;2023-02-07T05:05:22;-2.60;99.90
35373;DHT22;21476;51.652;7.852;2023-02-07T05:07:48;-2.70;99.90
35373;DHT22;21476;51.652;7.852;2023-02-07T05:10:19;-2.70;99.90
35373;DHT22;21476;51.652;7.852;2023-02-07T05:12:50;-2.60;99.90
35373;DHT22;21476;51.652;7.852;2023-02-07T05:15:15;-2.60;99.90
35373;DHT22;21476;51.652;7.852;2023-02-07T05:17:50;-2.70;99.90
35373;DHT22;21476;51.652;7.852;2023-02-07T05:20:20;-2.70;99.90
35373;DHT22;21476;51.652;7.852;2023-02-07T05:22:45;-2.70;99.90
35373;DHT22;21476;51.652;7.852;2023-02-07T05:25:11;-2.70;99.90
35373;DHT22;21476;51.652;7.852;2023-02-07T05:27:42;-2.60;99.90
35373;DHT22;21476;51.652;7.852;2023-02-07T05:30:09;-2.60;99.90
35373;DHT22;21476;51.652;7.852;2023-02-07T05:32:38;-2.40;99.90
35373;DHT22;21476;51.652;7.852;2023-02-07T05:35:22;-2.30;99.90
35373;DHT22;21476;51.652;7.852;2023-02-07T05:37:47;-2.30;99.90
35373;DHT22;21476;51.652;7.852;2023-02-07T05:40:13;-2.30;99.90
35373;DHT22;21476;51.652;7.852;2023-02-07T05:42:39;-2.30;99.90
35373;DHT22;21476;51.652;7.852;2023-02-07T05:45:06;-2.30;99.90
35373;DHT22;21476;51.652;7.852;2023-02-07T05:47:32;-2.40;99.90
35373;DHT22;21476;51.652;7.852;2023-02-07T05:49:58;-2.50;99.90
35373;DHT22;21476;51.652;7.852;2023-02-07T05:52:23;-2.50;99.90
35373;DHT22;21476;51.652;7.852;2023-02-07T05:54:49;-2.60;99.90
35373;DHT22;21476;51.652;7.852;2023-02-07T05:57:14;-2.50;99.90
35373;DHT22;21476;51.652;7.852;2023-02-07T05:59:40;-2.50;99.90
35373;DHT22;21476;51.652;7.852;2023-02-07T06:02:06;-2.60;99.90
35373;DHT22;21476;51.652;7.852;2023-02-07T06:04:31;-2.50;99.90
35373;DHT22;21476;51.652;7.852;2023-02-07T06:06:57;-2.50;99.90
35373;DHT22;21476;51.652;7.852;2023-02-07T06:09:22;-2.50;99.90
35373;DHT22;21476;51.652;7.852;2023-02-07T06:11:48;-2.50;99.90
35373;DHT22;21476;51.652;7.852;2023-02-07T06:14:14;-2.60;99.90
35373;DHT22;21476;51.652;7.852;2023-02-07T06:16:39;-2.60;99.90
35373;DHT22;21476;51.652;7.852;2023-02-07T06:19:05;-2.60;99.90
35373;DHT22;21476;51.652;7.852;2023-02-07T06:21:31;-2.60;99.90
35373;DHT22;21476;51.652;7.852;2023-02-07T06:23:56;-2.50;99.90
35373;DHT22;21476;51.652;7.852;2023-02-07T06:26:22;-2.50;99.90
35373;DHT22;21476;51.652;7.852;2023-02-07T06:28:47;-2.40;99.90
35373;DHT22;21476;51.652;7.852;2023-02-07T06:31:13;-2.50;99.90
35373;DHT22;21476;51.652;7.852;2023-02-07T06:33:39;-2.50;99.90
35373;DHT22;21476;51.652;7.852;2023-02-07T06:36:04;-2.50;99.90
35373;DHT22;21476;51.652;7.852;2023-02-07T06:38:30;-2.60;99.90
35373;DHT22;21476;51.652;7.852;2023-02-07T06:40:56;-2.70;99.90
35373;DHT22;21476;51.652;7.852;2023-02-07T06:43:21;-2.80;99.90
35373;DHT22;21476;51.652;7.852;2023-02-07T06:45:47;-2.80;99.90
35373;DHT22;21476;51.652;7.852;2023-02-07T06:48:12;-2.90;99.90
35373;DHT22;21476;51.652;7.852;2023-02-07T06:50:38;-2.90;99.90
35373;DHT22;21476;51.652;7.852;2023-02-07T06:53:04;-2.90;99.90
35373;DHT22;21476;51.652;7.852;2023-02-07T06:55:31;-2.90;99.90
35373;DHT22;21476;51.652;7.852;2023-02-07T06:57:57;-2.90;99.90
35373;DHT22;21476;51.652;7.852;2023-02-07T07:00:23;-2.90;99.90
35373;DHT22;21476;51.652;7.852;2023-02-07T07:02:49;-2.90;99.90
35373;DHT22;21476;51.652;7.852;2023-02-07T07:05:15;-2.90;99.90
35373;DHT22;21476;51.652;7.852;2023-02-07T07:07:41;-2.80;99.90
35373;DHT22;21476;51.652;7.852;2023-02-07T07:10:06;-2.70;99.90
35373;DHT22;21476;51.652;7.852;2023-02-07T07:12:33;-2.50;99.90
35373;DHT22;21476;51.652;7.852;2023-02-07T07:14:58;-2.00;99.90
35373;DHT22;21476;51.652;7.852;2023-02-07T07:17:24;-1.30;99.90
35373;DHT22;21476;51.652;7.852;2023-02-07T07:19:50;-0.70;99.90
35373;DHT22;21476;51.652;7.852;2023-02-07T07:22:15;0.00;99.90
35373;DHT22;21476;51.652;7.852;2023-02-07T07:24:41;0.50;99.90
35373;DHT22;21476;51.652;7.852;2023-02-07T07:27:07;0.70;99.90
35373;DHT22;21476;51.652;7.852;2023-02-07T07:29:33;1.20;99.90
35373;DHT22;21476;51.652;7.852;2023-02-07T07:31:58;2.20;99.90
35373;DHT22;21476;51.652;7.852;2023-02-07T07:34:24;2.40;99.90
35373;DHT22;21476;51.652;7.852;2023-02-07T07:36:49;2.90;99.90
35373;DHT22;21476;51.652;7.852;2023-02-07T07:39:16;3.60;99.90
35373;DHT22;21476;51.652;7.852;2023-02-07T07:41:41;4.00;99.90
35373;DHT22;21476;51.652;7.852;2023-02-07T07:44:07;5.10;99.90
35373;DHT22;21476;51.652;7.852;2023-02-07T07:46:33;6.30;99.90
35373;DHT22;21476;51.652;7.852;2023-02-07T07:48:59;7.40;99.90
35373;DHT22;21476;51.652;7.852;2023-02-07T07:51:24;7.20;99.90
35373;DHT22;21476;51.652;7.852;2023-02-07T07:53:50;7.60;99.90
35373;DHT22;21476;51.652;7.852;2023-02-07T07:56:16;7.80;99.90
35373;DHT22;21476;51.652;7.852;2023-02-07T07:58:41;7.50;99.90
35373;DHT22;21476;51.652;7.852;2023-02-07T08:01:07;7.20;99.90
35373;DHT22;21476;51.652;7.852;2023-02-07T08:03:32;7.50;99.90
35373;DHT22;21476;51.652;7.852;2023-02-07T08:05:58;7.80;99.90
35373;DHT22;21476;51.652;7.852;2023-02-07T08:08:24;8.20;99.90
35373;DHT22;21476;51.652;7.852;2023-02-07T08:10:49;8.90;99.90
35373;DHT22;21476;51.652;7.852;2023-02-07T08:13:15;9.20;99.90
35373;DHT22;21476;51.652;7.852;2023-02-07T08:15:42;9.20;99.90
35373;DHT22;21476;51.652;7.852;2023-02-07T08:18:08;9.10;99.90
35373;DHT22;21476;51.652;7.852;2023-02-07T08:20:33;9.60;99.90
35373;DHT22;21476;51.652;7.852;2023-02-07T08:22:59;9.60;99.90
35373;DHT22;21476;51.652;7.852;2023-02-07T08:25:25;8.90;99.90
35373;DHT22;21476;51.652;7.852;2023-02-07T08:27:51;9.00;99.90
35373;DHT22;21476;51.652;7.852;2023-02-07T08:30:17;9.30;99.90
35373;DHT22;21476;51.652;7.852;2023-02-07T08:32:43;9.20;99.90
35373;DHT22;21476;51.652;7.852;2023-02-07T08:35:09;9.50;99.90
35373;DHT22;21476;51.652;7.852;2023-02-07T08:37:35;9.90;99.90
35373;DHT22;21476;51.652;7.852;2023-02-07T08:40:02;10.20;99.90
35373;DHT22;21476;51.652;7.852;2023-02-07T08:42:29;8.30;99.90
35373;DHT22;21476;51.652;7.852;2023-02-07T08:44:54;7.50;99.90
35373;DHT22;21476;51.652;7.852;2023-02-07T08:47:21;7.60;99.90
35373;DHT22;21476;51.652;7.852;2023-02-07T08:49:50;6.90;99.90
35373;DHT22;21476;51.652;7.852;2023-02-07T08:52:15;8.20;99.90
35373;DHT22;21476;51.652;7.852;2023-02-07T08:54:41;8.30;99.90
35373;DHT22;21476;51.652;7.852;2023-02-07T08:57:06;8.20;99.90
35373;DHT22;21476;51.652;7.852;2023-02-07T08:59:32;8.50;99.90
35373;DHT22;21476;51.652;7.852;2023-02-07T09:01:58;8.90;99.90
35373;DHT22;21476;51.652;7.852;2023-02-07T09:04:23;9.20;99.90
35373;DHT22;21476;51.652;7.852;2023-02-07T09:06:49;9.40;99.90
35373;DHT22;21476;51.652;7.852;2023-02-07T09:09:14;9.70;99.90
35373;DHT22;21476;51.652;7.852;2023-02-07T09:11:40;9.70;99.90
35373;DHT22;21476;51.652;7.852;2023-02-07T09:14:05;9.70;99.90
35373;DHT22;21476;51.652;7.852;2023-02-07T09:16:31;10.00;99.90
35373;DHT22;21476;51.652;7.852;2023-02-07T09:18:57;9.80;99.90
35373;DHT22;21476;51.652;7.852;2023-02-07T09:21:22;10.00;99.90
35373;DHT22;21476;51.652;7.852;2023-02-07T09:23:48;10.10;99.90
35373;DHT22;21476;51.652;7.852;2023-02-07T09:26:20;10.60;99.90
35373;DHT22;21476;51.652;7.852;2023-02-07T09:28:47;11.50;99.90
35373;DHT22;21476;51.652;7.852;2023-02-07T09:31:14;11.00;99.90
35373;DHT22;21476;51.652;7.852;2023-02-07T09:33:40;11.40;99.90
35373;DHT22;21476;51.652;7.852;2023-02-07T09:36:20;10.50;99.90
35373;DHT22;21476;51.652;7.852;2023-02-07T09:38:47;10.50;99.90
35373;DHT22;21476;51.652;7.852;2023-02-07T09:41:21;11.10;99.90
35373;DHT22;21476;51.652;7.852;2023-02-07T09:44:40;11.10;99.90
35373;DHT22;21476;51.652;7.852;2023-02-07T09:47:09;11.10;99.90
35373;DHT22;21476;51.652;7.852;2023-02-07T09:49:37;10.60;99.90
35373;DHT22;21476;51.652;7.852;2023-02-07T09:52:28;10.60;99.90
35373;DHT22;21476;51.652;7.852;2023-02-07T09:54:56;10.80;99.90
35373;DHT22;21476;51.652;7.852;2023-02-07T09:57:28;10.40;99.90
35373;DHT22;21476;51.652;7.852;2023-02-07T09:59:58;11.30;99.90
35373;DHT22;21476;51.652;7.852;2023-02-07T10:05:03;11.50;99.90
35373;DHT22;21476;51.652;7.852;2023-02-07T10:07:31;11.80;99.90
35373;DHT22;21476;51.652;7.852;2023-02-07T10:09:56;12.00;99.90
35373;DHT22;21476;51.652;7.852;2023-02-07T10:12:55;11.20;99.90
35373;DHT22;21476;51.652;7.852;2023-02-07T10:21:16;11.60;99.90
35373;DHT22;21476;51.652;7.852;2023-02-07T10:23:57;11.70;99.90
35373;DHT22;21476;51.652;7.852;2023-02-07T10:29:12;10.80;99.90
35373;DHT22;21476;51.652;7.852;2023-02-07T10:31:46;11.50;99.90
35373;DHT22;21476;51.652;7.852;2023-02-07T10:34:15;10.70;99.90
35373;DHT22;21476;51.652;7.852;2023-02-07T10:36:45;10.40;99.90
35373;DHT22;21476;51.652;7.852;2023-02-07T10:39:32;9.70;99.90
35373;DHT22;21476;51.652;7.852;2023-02-07T10:41:58;9.70;99.90
35373;DHT22;21476;51.652;7.852;2023-02-07T10:44:24;9.50;99.90
35373;DHT22;21476;51.652;7.852;2023-02-07T10:47:03;9.50;99.90
35373;DHT22;21476;51.652;7.852;2023-02-07T10:49:35;9.60;99.90
35373;DHT22;21476;51.652;7.852;2023-02-07T10:52:23;9.40;99.90
35373;DHT22;21476;51.652;7.852;2023-02-07T10:54:59;9.00;99.90
35373;DHT22;21476;51.652;7.852;2023-02-07T10:57:26;8.70;99.90
35373;DHT22;21476;51.652;7.852;2023-02-07T11:05:03;7.70;99.90
35373;DHT22;21476;51.652;7.852;2023-02-07T11:07:30;7.30;99.90
35373;DHT22;21476;51.652;7.852;2023-02-07T11:10:20;6.80;99.90
35373;DHT22;21476;51.652;7.852;2023-02-07T11:12:53;6.80;99.90
35373;DHT22;21476;51.652;7.852;2023-02-07T11:15:22;6.70;99.90
35373;DHT22;21476;51.652;7.852;2023-02-07T11:17:54;6.70;99.90
35373;DHT22;21476;51.652;7.852;2023-02-07T11:20:25;7.10;99.90
35373;DHT22;21476;51.652;7.852;2023-02-07T11:22:53;6.60;99.90
35373;DHT22;21476;51.652;7.852;2023-02-07T11:25:29;6.70;99.90
35373;DHT22;21476;51.652;7.852;2023-02-07T11:27:56;6.60;99.90
35373;DHT22;21476;51.652;7.852;2023-02-07T11:30:22;6.20;99.90
35373;DHT22;21476;51.652;7.852;2023-02-07T11:32:59;6.30;99.90
35373;DHT22;21476;51.652;7.852;2023-02-07T11:35:25;6.20;99.90
35373;DHT22;21476;51.652;7.852;2023-02-07T11:38:00;6.40;99.90
35373;DHT22;21476;51.652;7.852;2023-02-07T11:40:36;6.30;99.90
35373;DHT22;21476;51.652;7.852;2023-02-07T11:45:36;6.00;99.90
35373;DHT22;21476;51.652;7.852;2023-02-07T11:48:03;5.70;99.90
35373;DHT22;21476;51.652;7.852;2023-02-07T11:50:37;5.80;99.90
35373;DHT22;21476;51.652;7.852;2023-02-07T11:53:20;5.70;99.90
35373;DHT22;21476;51.652;7.852;2023-02-07T11:55:50;6.10;99.90
35373;DHT22;21476;51.652;7.852;2023-02-07T11:58:23;6.10;99.90
35373;DHT22;21476;51.652;7.852;2023-02-07T12:00:54;6.10;99.90
35373;DHT22;21476;51.652;7.852;2023-02-07T12:03:26;6.00;99.90
35373;DHT22;21476;51.652;7.852;2023-02-07T12:05:59;6.40;99.90
35373;DHT22;21476;51.652;7.852;2023-02-07T12:08:28;6.40;99.90
35373;DHT22;21476;51.652;7.852;2023-02-07T12:10:58;6.50;99.90
35373;DHT22;21476;51.652;7.852;2023-02-07T12:13:49;6.20;99.90
35373;DHT22;21476;51.652;7.852;2023-02-07T12:16:18;6.30;99.90
35373;DHT22;21476;51.652;7.852;2023-02-07T12:19:04;6.10;99.90
35373;DHT22;21476;51.652;7.852;2023-02-07T12:21:59;6.20;99.90
35373;DHT22;21476;51.652;7.852;2023-02-07T12:24:41;6.10;99.90
35373;DHT22;21476;51.652;7.852;2023-02-07T12:32:43;6.10;99.90
35373;DHT22;21476;51.652;7.852;2023-02-07T12:40:42;6.50;99.90
35373;DHT22;21476;51.652;7.852;2023-02-07T13:12:57;5.70;99.90
35373;DHT22;21476;51.652;7.852;2023-02-07T13:15:43;5.70;99.90
35373;DHT22;21476;51.652;7.852;2023-02-07T13:18:20;5.80;99.90
35373;DHT22;21476;51.652;7.852;2023-02-07T13:24:01;5.50;99.90
35373;DHT22;21476;51.652;7.852;2023-02-07T13:26:27;5.70;99.90
35373;DHT22;21476;51.652;7.852;2023-02-07T13:28:55;5.70;99.90
35373;DHT22;21476;51.652;7.852;2023-02-07T13:31:48;5.60;99.90
35373;DHT22;21476;51.652;7.852;2023-02-07T13:34:18;5.60;99.90
35373;DHT22;21476;51.652;7.852;2023-02-07T13:36:48;5.60;99.90
35373;DHT22;21476;51.652;7.852;2023-02-07T13:39:18;5.70;99.90
35373;DHT22;21476;51.652;7.852;2023-02-07T13:44:21;5.70;99.90
35373;DHT22;21476;51.652;7.852;2023-02-07T13:49:52;5.70;99.90
35373;DHT22;21476;51.652;7.852;2023-02-07T13:52:29;5.60;99.90
35373;DHT22;21476;51.652;7.852;2023-02-07T14:00:20;5.40;99.90
35373;DHT22;21476;51.652;7.852;2023-02-07T14:05:32;5.30;99.90
35373;DHT22;21476;51.652;7.852;2023-02-07T14:08:00;5.30;99.90
35373;DHT22;21476;51.652;7.852;2023-02-07T14:10:48;5.40;99.90
35373;DHT22;21476;51.652;7.852;2023-02-07T14:21:03;5.30;99.90
35373;DHT22;21476;51.652;7.852;2023-02-07T14:31:49;5.30;99.90
35373;DHT22;21476;51.652;7.852;2023-02-07T14:34:18;5.20;99.90
35373;DHT22;21476;51.652;7.852;2023-02-07T14:36:49;5.30;99.90
35373;DHT22;21476;51.652;7.852;2023-02-07T14:39:29;5.40;99.90
35373;DHT22;21476;51.652;7.852;2023-02-07T14:42:02;5.30;99.90
35373;DHT22;21476;51.652;7.852;2023-02-07T14:44:37;5.10;99.90
35373;DHT22;21476;51.652;7.852;2023-02-07T14:47:06;5.10;99.90
35373;DHT22;21476;51.652;7.852;2023-02-07T14:49:36;5.10;99.90
35373;DHT22;21476;51.652;7.852;2023-02-07T14:52:07;5.00;99.90
35373;DHT22;21476;51.652;7.852;2023-02-07T14:54:49;5.00;99.90
35373;DHT22;21476;51.652;7.852;2023-02-07T14:57:32;4.90;99.90
35373;DHT22;21476;51.652;7.852;2023-02-07T15:02:40;4.80;99.90
35373;DHT22;21476;51.652;7.852;2023-02-07T15:05:24;4.80;99.90
35373;DHT22;21476;51.652;7.852;2023-02-07T15:08:04;4.80;99.90
35373;DHT22;21476;51.652;7.852;2023-02-07T15:10:36;4.90;99.90
35373;DHT22;21476;51.652;7.852;2023-02-07T15:13:13;4.70;99.90
35373;DHT22;21476;51.652;7.852;2023-02-07T15:18:25;4.60;99.90
35373;DHT22;21476;51.652;7.852;2023-02-07T15:20:55;4.60;99.90
35373;DHT22;21476;51.652;7.852;2023-02-07T15:23:22;4.50;99.90
35373;DHT22;21476;51.652;7.852;2023-02-07T15:25:48;4.40;99.90
35373;DHT22;21476;51.652;7.852;2023-02-07T15:28:22;4.30;99.90
35373;DHT22;21476;51.652;7.852;2023-02-07T15:36:04;4.20;99.90
35373;DHT22;21476;51.652;7.852;2023-02-07T15:38:30;4.20;99.90
35373;DHT22;21476;51.652;7.852;2023-02-07T15:40:57;4.20;99.90
35373;DHT22;21476;51.652;7.852;2023-02-07T15:43:32;4.30;99.90
35373;DHT22;21476;51.652;7.852;2023-02-07T15:46:08;4.20;99.90
35373;DHT22;21476;51.652;7.852;2023-02-07T15:48:49;4.10;99.90
35373;DHT22;21476;51.652;7.852;2023-02-07T15:51:17;4.10;99.90
35373;DHT22;21476;51.652;7.852;2023-02-07T15:53:48;4.10;99.90
35373;DHT22;21476;51.652;7.852;2023-02-07T15:56:15;4.00;99.90
35373;DHT22;21476;51.652;7.852;2023-02-07T15:58:41;4.00;99.90
35373;DHT22;21476;51.652;7.852;2023-02-07T16:01:15;3.90;99.90
35373;DHT22;21476;51.652;7.852;2023-02-07T16:03:43;3.80;99.90
35373;DHT22;21476;51.652;7.852;2023-02-07T16:08:43;3.80;99.90
35373;DHT22;21476;51.652;7.852;2023-02-07T16:16:39;3.60;99.90
35373;DHT22;21476;51.652;7.852;2023-02-07T16:19:13;3.60;99.90
35373;DHT22;21476;51.652;7.852;2023-02-07T16:21:44;3.50;99.90
35373;DHT22;21476;51.652;7.852;2023-02-07T16:24:21;3.40;99.90
35373;DHT22;21476;51.652;7.852;2023-02-07T16:26:47;3.30;99.90
35373;DHT22;21476;51.652;7.852;2023-02-07T16:29:20;3.30;99.90
35373;DHT22;21476;51.652;7.852;2023-02-07T16:31:47;3.20;99.90
35373;DHT22;21476;51.652;7.852;2023-02-07T16:34:15;3.10;99.90
35373;DHT22;21476;51.652;7.852;2023-02-07T16:36:41;3.00;99.90
35373;DHT22;21476;51.652;7.852;2023-02-07T16:39:07;2.90;99.90
35373;DHT22;21476;51.652;7.852;2023-02-07T16:41:35;2.80;99.90
35373;DHT22;21476;51.652;7.852;2023-02-07T16:44:11;2.70;99.90
35373;DHT22;21476;51.652;7.852;2023-02-07T16:46:38;2.60;99.90
35373;DHT22;21476;51.652;7.852;2023-02-07T16:49:17;2.60;99.90
35373;DHT22;21476;51.652;7.852;2023-02-07T16:51:43;2.50;99.90
35373;DHT22;21476;51.652;7.852;2023-02-07T16:54:09;2.40;99.90
35373;DHT22;21476;51.652;7.852;2023-02-07T16:56:35;2.40;99.90
35373;DHT22;21476;51.652;7.852;2023-02-07T16:59:01;2.30;99.90
35373;DHT22;21476;51.652;7.852;2023-02-07T17:01:29;2.20;99.90
35373;DHT22;21476;51.652;7.852;2023-02-07T17:03:55;2.10;99.90
35373;DHT22;21476;51.652;7.852;2023-02-07T17:06:22;2.00;99.90
35373;DHT22;21476;51.652;7.852;2023-02-07T17:08:49;1.80;99.90
35373;DHT22;21476;51.652;7.852;2023-02-07T17:11:24;1.60;99.90
35373;DHT22;21476;51.652;7.852;2023-02-07T17:13:57;1.50;99.90
35373;DHT22;21476;51.652;7.852;2023-02-07T17:16:25;1.30;99.90
35373;DHT22;21476;51.652;7.852;2023-02-07T17:18:51;1.20;99.90
35373;DHT22;21476;51.652;7.852;2023-02-07T17:21:17;1.00;99.90
35373;DHT22;21476;51.652;7.852;2023-02-07T17:23:44;0.80;99.90
35373;DHT22;21476;51.652;7.852;2023-02-07T17:26:22;0.90;99.90
35373;DHT22;21476;51.652;7.852;2023-02-07T17:28:50;0.70;99.90
35373;DHT22;21476;51.652;7.852;2023-02-07T17:31:16;0.60;99.90
35373;DHT22;21476;51.652;7.852;2023-02-07T17:33:41;0.60;99.90
35373;DHT22;21476;51.652;7.852;2023-02-07T17:36:10;0.50;99.90
35373;DHT22;21476;51.652;7.852;2023-02-07T17:38:36;0.50;99.90
35373;DHT22;21476;51.652;7.852;2023-02-07T17:41:02;0.60;99.90
35373;DHT22;21476;51.652;7.852;2023-02-07T17:43:28;0.50;99.90
35373;DHT22;21476;51.652;7.852;2023-02-07T17:45:54;0.50;99.90
35373;DHT22;21476;51.652;7.852;2023-02-07T17:48:19;0.50;99.90
35373;DHT22;21476;51.652;7.852;2023-02-07T17:50:45;0.40;99.90
35373;DHT22;21476;51.652;7.852;2023-02-07T17:53:10;0.40;99.90
35373;DHT22;21476;51.652;7.852;2023-02-07T17:55:37;0.40;99.90
35373;DHT22;21476;51.652;7.852;2023-02-07T17:58:03;0.20;99.90
35373;DHT22;21476;51.652;7.852;2023-02-07T18:00:37;0.30;99.90
35373;DHT22;21476;51.652;7.852;2023-02-07T18:03:06;0.30;99.90
35373;DHT22;21476;51.652;7.852;2023-02-07T18:05:32;0.30;99.90
35373;DHT22;21476;51.652;7.852;2023-02-07T18:07:58;0.20;99.90
35373;DHT22;21476;51.652;7.852;2023-02-07T18:10:29;0.10;99.90
35373;DHT22;21476;51.652;7.852;2023-02-07T18:12:55;0.10;99.90
35373;DHT22;21476;51.652;7.852;2023-02-07T18:15:21;0.10;99.90